Wetterdaten: Woche 14.11.05 - 20.11.05 (KW46)
Datum Zeit Temperatur Luftfeuchte Luftdruck Niederschlag Wind Richtung Sonne Helligkeit Taupunkt Windchill
14.11.2005 00:00 5.1 C 81 % 1024.1 hPa 0.0 l/m 0.5 km/h (0 Bft) O-NO 0.00 h 0 lux 2.2 C 5.1 C
14.11.2005 01:00 4.7 C 82 % 1024.2 hPa 0.0 l/m 3.8 km/h (1 Bft) O-SO 0.00 h 0 lux 1.9 C 3.9 C
14.11.2005 02:00 4.5 C 84 % 1024.2 hPa 0.0 l/m 8.8 km/h (2 Bft) O-SO 0.00 h 0 lux 2.0 C 2.4 C
14.11.2005 03:00 4.5 C 84 % 1024.2 hPa 0.0 l/m 2.2 km/h (1 Bft) O 0.00 h 0 lux 2.0 C 4.0 C
14.11.2005 04:00 4.5 C 83 % 1024.2 hPa 0.0 l/m 0.3 km/h (0 Bft) NO 0.00 h 0 lux 2.0 C 4.5 C
14.11.2005 05:00 4.4 C 84 % 1024.2 hPa 0.0 l/m 0.4 km/h (0 Bft) N 0.00 h 0 lux 1.9 C 4.4 C
14.11.2005 06:00 4.3 C 84 % 1024.2 hPa 0.0 l/m 0.7 km/h (0 Bft) O 0.00 h 0 lux 1.8 C 4.2 C
14.11.2005 07:00 4.2 C 85 % 1024.2 hPa 0.0 l/m 0.2 km/h (0 Bft) N 0.00 h 206 lux 2.0 C 4.2 C
14.11.2005 08:00 4.2 C 86 % 1024.7 hPa 0.0 l/m 0.4 km/h (0 Bft) O-NO 0.00 h 1.38 klux 2.1 C 4.1 C
14.11.2005 09:00 4.2 C 86 % 1025.3 hPa 0.0 l/m 0.4 km/h (0 Bft) O-SO 0.00 h 3.59 klux 2.0 C 4.1 C
14.11.2005 10:00 4.3 C 82 % 1025.2 hPa 0.0 l/m 1.5 km/h (1 Bft) NO 0.00 h 5.73 klux 1.5 C 4.1 C
14.11.2005 11:00 4.3 C 79 % 1025.2 hPa 0.0 l/m 1.4 km/h (1 Bft) O-NO 0.00 h 5.71 klux 1.0 C 4.0 C
14.11.2005 12:00 4.4 C 78 % 1024.2 hPa 0.0 l/m 1.4 km/h (1 Bft) O 0.00 h 5.91 klux 1.0 C 4.2 C
14.11.2005 13:00 4.5 C 77 % 1024.2 hPa 0.0 l/m 1.6 km/h (1 Bft) NO 0.00 h 7.61 klux 0.8 C 4.3 C
14.11.2005 14:00 4.7 C 76 % 1023.3 hPa 0.0 l/m 2.5 km/h (1 Bft) O-SO 0.00 h 5.72 klux 0.9 C 4.2 C
14.11.2005 15:00 4.4 C 78 % 1023.1 hPa 0.0 l/m 7.7 km/h (2 Bft) O-SO 0.00 h 2.49 klux 0.9 C 2.6 C
14.11.2005 16:00 4.1 C 79 % 1023.2 hPa 0.0 l/m 1.2 km/h (1 Bft) SO 0.00 h 538 lux 0.7 C 3.9 C
14.11.2005 17:00 4.0 C 79 % 1023.2 hPa 0.0 l/m 0.4 km/h (0 Bft) N 0.00 h 28 lux 0.7 C 4.0 C
14.11.2005 18:00 3.8 C 80 % 1023.2 hPa 0.0 l/m 1.0 km/h (0 Bft) O 0.00 h 0 lux 0.6 C 3.6 C
14.11.2005 19:00 3.7 C 81 % 1023.2 hPa 0.0 l/m 0.4 km/h (0 Bft) N 0.00 h 0 lux 0.8 C 3.7 C
14.11.2005 20:00 3.6 C 81 % 1023.1 hPa 0.0 l/m 0.6 km/h (0 Bft) O-NO 0.00 h 0 lux 0.6 C 3.5 C
14.11.2005 21:00 3.5 C 81 % 1022.4 hPa 0.0 l/m 1.2 km/h (1 Bft) N-NO 0.00 h 0 lux 0.6 C 3.3 C
14.11.2005 22:00 3.5 C 82 % 1022.2 hPa 0.0 l/m 0.2 km/h (0 Bft) O-SO 0.00 h 0 lux 0.8 C 3.5 C
14.11.2005 23:00 3.5 C 83 % 1021.3 hPa 0.0 l/m 1.2 km/h (1 Bft) NO 0.00 h 0 lux 0.8 C 3.4 C
15.11.2005 00:00 3.4 C 83 % 1021.1 hPa 0.0 l/m 0.0 km/h (0 Bft) N 0.00 h 0 lux 0.9 C 3.4 C
15.11.2005 01:00 3.5 C 85 % 1020.2 hPa 0.0 l/m 0.0 km/h (0 Bft) N 0.00 h 0 lux 1.2 C 3.5 C
15.11.2005 02:00 3.6 C 86 % 1020.1 hPa 0.0 l/m 0.0 km/h (0 Bft) N 0.00 h 0 lux 1.4 C 3.6 C
15.11.2005 03:00 3.8 C 86 % 1019.4 hPa 0.0 l/m 0.0 km/h (0 Bft) N 0.00 h 0 lux 1.6 C 3.8 C
15.11.2005 04:00 4.0 C 86 % 1018.6 hPa 0.0 l/m 1.7 km/h (1 Bft) W 0.00 h 0 lux 1.9 C 3.8 C
15.11.2005 05:00 4.2 C 87 % 1018.0 hPa 0.0 l/m 0.3 km/h (0 Bft) S-SO 0.00 h 0 lux 2.2 C 4.2 C
15.11.2005 06:00 4.3 C 86 % 1017.4 hPa 0.0 l/m 0.4 km/h (0 Bft) S-SW 0.00 h 0 lux 2.2 C 4.3 C
15.11.2005 07:00 4.4 C 86 % 1016.9 hPa 0.0 l/m 0.8 km/h (0 Bft) W-NW 0.00 h 329 lux 2.3 C 4.3 C
15.11.2005 08:00 4.6 C 84 % 1016.7 hPa 0.0 l/m 0.9 km/h (0 Bft) SO 0.00 h 2.75 klux 2.2 C 4.6 C
15.11.2005 09:00 5.1 C 82 % 1015.8 hPa 0.0 l/m 3.8 km/h (1 Bft) SO 0.00 h 6.98 klux 2.2 C 4.3 C
15.11.2005 10:00 5.6 C 79 % 1015.5 hPa 0.0 l/m 6.9 km/h (2 Bft) SO 0.00 h 12.8 klux 2.3 C 4.3 C
15.11.2005 11:00 6.4 C 76 % 1014.1 hPa 0.0 l/m 6.1 km/h (2 Bft) SO 0.00 h 20.5 klux 2.5 C 5.3 C
15.11.2005 12:00 6.9 C 74 % 1013.0 hPa 0.0 l/m 5.8 km/h (2 Bft) O-SO 0.07 h 24.7 klux 2.6 C 5.9 C
15.11.2005 13:00 8.0 C 71 % 1011.8 hPa 0.0 l/m 8.0 km/h (2 Bft) SO 1.00 h 45.4 klux 3.0 C 6.7 C
15.11.2005 14:00 9.1 C 67 % 1011.1 hPa 0.0 l/m 5.2 km/h (1 Bft) SO 1.00 h 35.7 klux 3.3 C 8.5 C
15.11.2005 15:00 9.5 C 67 % 1010.5 hPa 0.0 l/m 1.4 km/h (1 Bft) S 0.90 h 19.2 klux 3.6 C 9.4 C
15.11.2005 16:00 8.4 C 71 % 1010.1 hPa 0.0 l/m 1.2 km/h (1 Bft) W 0.63 h 4.10 klux 3.5 C 8.3 C
15.11.2005 17:00 6.5 C 79 % 1010.4 hPa 0.0 l/m 3.7 km/h (1 Bft) W-NW 0.00 h 63 lux 3.2 C 5.9 C
15.11.2005 18:00 5.4 C 83 % 1010.5 hPa 0.0 l/m 1.3 km/h (1 Bft) W 0.00 h 0 lux 2.8 C 5.2 C
15.11.2005 19:00 4.9 C 86 % 1010.6 hPa 0.0 l/m 0.0 km/h (0 Bft) N 0.00 h 0 lux 2.8 C 4.9 C
15.11.2005 20:00 4.9 C 89 % 1010.6 hPa 0.0 l/m 0.0 km/h (0 Bft) N 0.00 h 0 lux 3.3 C 4.9 C
15.11.2005 21:00 4.9 C 90 % 1010.3 hPa 0.0 l/m 0.0 km/h (0 Bft) N 0.00 h 0 lux 3.5 C 4.9 C
15.11.2005 22:00 4.7 C 91 % 1009.6 hPa 0.0 l/m 0.0 km/h (0 Bft) N 0.00 h 0 lux 3.3 C 4.7 C
15.11.2005 23:00 4.6 C 92 % 1009.6 hPa 0.0 l/m 0.4 km/h (0 Bft) NW 0.00 h 0 lux 3.4 C 4.6 C
16.11.2005 00:00 4.9 C 93 % 1009.6 hPa 0.0 l/m 3.3 km/h (1 Bft) O 0.00 h 0 lux 3.8 C 4.4 C
16.11.2005 01:00 4.7 C 94 % 1009.6 hPa 0.0 l/m 0.0 km/h (0 Bft) N 0.00 h 0 lux 3.7 C 4.7 C
16.11.2005 02:00 3.7 C 94 % 1008.2 hPa 0.0 l/m 0.0 km/h (0 Bft) N 0.00 h 0 lux 2.8 C 3.7 C
16.11.2005 03:00 3.4 C 95 % 1007.7 hPa 0.0 l/m 0.1 km/h (0 Bft) SO 0.00 h 0 lux 2.7 C 3.4 C
16.11.2005 04:00 5.0 C 96 % 1006.4 hPa 0.0 l/m 1.4 km/h (1 Bft) SO 0.00 h 0 lux 4.5 C 4.8 C
16.11.2005 05:00 5.7 C 97 % 1005.7 hPa 0.0 l/m 6.4 km/h (2 Bft) SO 0.00 h 0 lux 5.3 C 4.5 C
16.11.2005 06:00 6.2 C 97 % 1005.2 hPa 0.0 l/m 4.0 km/h (1 Bft) SO 0.00 h 0 lux 5.7 C 5.6 C
16.11.2005 07:00 6.4 C 95 % 1005.2 hPa 0.0 l/m 3.8 km/h (1 Bft) SO 0.00 h 628 lux 5.6 C 5.7 C
16.11.2005 08:00 7.1 C 88 % 1005.1 hPa 0.0 l/m 3.8 km/h (1 Bft) W-NW 0.00 h 5.98 klux 5.2 C 6.7 C
16.11.2005 09:00 7.5 C 82 % 1005.0 hPa 0.0 l/m 14.7 km/h (3 Bft) W-NW 0.33 h 18.0 klux 4.6 C 5.0 C
16.11.2005 10:00 7.7 C 80 % 1004.0 hPa 0.0 l/m 25.6 km/h (4 Bft) W-NW 0.00 h 15.7 klux 4.6 C 4.0 C
16.11.2005 11:00 8.0 C 79 % 1003.9 hPa 0.0 l/m 33.2 km/h (5 Bft) W-NW 0.10 h 18.6 klux 4.5 C 3.8 C
16.11.2005 12:00 7.9 C 75 % 1003.3 hPa 0.0 l/m 29.6 km/h (5 Bft) W-NW 0.00 h 9.7 klux 3.8 C 4.0 C
16.11.2005 13:00 7.6 C 76 % 1002.9 hPa 0.0 l/m 31.8 km/h (5 Bft) NW 0.00 h 17.8 klux 3.6 C 3.4 C
16.11.2005 14:00 7.2 C 79 % 1003.0 hPa 0.0 l/m 37.1 km/h (5 Bft) W-NW 0.00 h 15.8 klux 3.8 C 2.5 C
16.11.2005 15:00 6.8 C 78 % 1003.1 hPa 0.0 l/m 39.3 km/h (6 Bft) NW 0.00 h 7.97 klux 3.3 C 1.8 C
16.11.2005 16:00 6.4 C 76 % 1003.5 hPa 0.0 l/m 36.5 km/h (5 Bft) NW 0.00 h 1.67 klux 2.6 C 1.4 C
16.11.2005 17:00 6.2 C 76 % 1004.2 hPa 0.0 l/m 19.5 km/h (3 Bft) W-NW 0.00 h 46 lux 2.3 C 2.7 C
16.11.2005 18:00 6.2 C 76 % 1005.0 hPa 0.0 l/m 19.3 km/h (3 Bft) W-NW 0.00 h 0 lux 2.3 C 2.8 C
16.11.2005 19:00 5.2 C 81 % 1005.9 hPa 0.6 l/m 17.4 km/h (3 Bft) W-NW 0.00 h 0 lux 2.2 C 1.8 C
16.11.2005 20:00 4.2 C 87 % 1006.5 hPa 0.0 l/m 1.4 km/h (1 Bft) NW 0.00 h 0 lux 2.2 C 4.0 C
16.11.2005 21:00 4.5 C 89 % 1007.1 hPa 0.0 l/m 3.7 km/h (1 Bft) W-NW 0.00 h 0 lux 2.8 C 3.7 C
16.11.2005 22:00 4.5 C 90 % 1007.5 hPa 0.0 l/m 3.7 km/h (1 Bft) W-NW 0.00 h 0 lux 2.9 C 3.8 C
16.11.2005 23:00 3.7 C 89 % 1008.4 hPa 0.0 l/m 2.4 km/h (1 Bft) O-SO 0.00 h 0 lux 2.1 C 3.2 C
17.11.2005 00:00 2.9 C 91 % 1008.8 hPa 0.0 l/m 1.6 km/h (1 Bft) W-NW 0.00 h 0 lux 1.6 C 2.8 C
17.11.2005 01:00 2.6 C 92 % 1009.6 hPa 0.0 l/m 0.1 km/h (0 Bft) N 0.00 h 0 lux 1.4 C 2.6 C
17.11.2005 02:00 2.7 C 93 % 1009.9 hPa 0.0 l/m 0.2 km/h (0 Bft) NW 0.00 h 0 lux 1.7 C 2.7 C
17.11.2005 03:00 1.2 C 93 % 1011.1 hPa 0.0 l/m 0.1 km/h (0 Bft) N 0.00 h 0 lux 0.2 C 1.2 C
17.11.2005 04:00 0.6 C 93 % 1011.2 hPa 0.0 l/m 1.0 km/h (0 Bft) O 0.00 h 0 lux -0.4 C 0.4 C
17.11.2005 05:00 -0.1 C 94 % 1012.1 hPa 0.0 l/m 1.4 km/h (1 Bft) SO 0.00 h 0 lux -1.0 C -0.5 C
17.11.2005 06:00 -1.0 C 94 % 1012.5 hPa 0.0 l/m 2.1 km/h (1 Bft) O-SO 0.00 h 0 lux -1.9 C -1.4 C
17.11.2005 07:00 -1.2 C 95 % 1013.6 hPa 0.0 l/m 0.0 km/h (0 Bft) N 0.00 h 576 lux -1.9 C -1.2 C
17.11.2005 08:00 -0.0 C 97 % 1013.4 hPa 0.0 l/m 0.8 km/h (0 Bft) SO 0.00 h 4.59 klux -0.4 C -0.1 C
17.11.2005 09:00 0.8 C 98 % 1013.7 hPa 0.0 l/m 1.1 km/h (1 Bft) O-SO 0.43 h 19.6 klux 0.5 C 0.6 C
17.11.2005 10:00 2.1 C 96 % 1014.1 hPa 0.0 l/m 0.5 km/h (0 Bft) O-SO 0.60 h 35.7 klux 1.5 C 1.9 C
17.11.2005 11:00 4.8 C 75 % 1013.7 hPa 0.0 l/m 1.0 km/h (0 Bft) W-SW 0.87 h 48.4 klux 0.6 C 4.6 C
17.11.2005 12:00 6.0 C 57 % 1013.6 hPa 0.0 l/m 12.7 km/h (3 Bft) W-NW 0.50 h 40.7 klux -1.9 C 3.6 C
17.11.2005 13:00 6.5 C 55 % 1013.5 hPa 0.0 l/m 13.7 km/h (3 Bft) NW 0.90 h 44.7 klux -1.9 C 3.9 C
17.11.2005 14:00 6.2 C 56 % 1013.7 hPa 0.0 l/m 9.7 km/h (2 Bft) W-NW 0.00 h 16.1 klux -1.9 C 4.3 C
17.11.2005 15:00 6.0 C 57 % 1014.6 hPa 0.0 l/m 6.7 km/h (2 Bft) W-NW 0.07 h 10.4 klux -1.9 C 4.8 C
17.11.2005 16:00 5.1 C 64 % 1014.7 hPa 0.0 l/m 5.3 km/h (1 Bft) W-NW 0.13 h 2.55 klux -1.2 C 4.0 C
17.11.2005 17:00 4.0 C 73 % 1015.6 hPa 0.0 l/m 11.8 km/h (2 Bft) W-NW 0.00 h 63 lux -0.5 C 1.3 C
17.11.2005 18:00 3.1 C 80 % 1016.2 hPa 0.0 l/m 13.4 km/h (3 Bft) W-NW 0.00 h 0 lux -0.0 C 0.3 C
17.11.2005 19:00 2.7 C 79 % 1016.9 hPa 0.0 l/m 19.4 km/h (3 Bft) W-NW 0.00 h 0 lux -0.6 C -1.7 C
17.11.2005 20:00 1.9 C 78 % 1017.3 hPa 0.0 l/m 5.5 km/h (1 Bft) W-NW 0.00 h 0 lux -1.5 C 0.6 C
17.11.2005 21:00 1.0 C 84 % 1017.6 hPa 0.0 l/m 0.4 km/h (0 Bft) W 0.00 h 0 lux -1.5 C 0.9 C
17.11.2005 22:00 0.3 C 87 % 1018.5 hPa 0.0 l/m 0.2 km/h (0 Bft) NW 0.00 h 0 lux -1.6 C 0.3 C
17.11.2005 23:00 -0.1 C 88 % 1018.6 hPa 0.0 l/m 1.8 km/h (1 Bft) NW 0.00 h 0 lux -1.8 C -0.3 C
18.11.2005 00:00 -0.2 C 90 % 1018.6 hPa 0.0 l/m 1.8 km/h (1 Bft) O 0.00 h 0 lux -1.6 C -0.5 C
18.11.2005 01:00 -0.6 C 91 % 1018.7 hPa 0.0 l/m 2.0 km/h (1 Bft) O 0.00 h 0 lux -1.9 C -1.0 C
18.11.2005 02:00 -0.9 C 92 % 1019.8 hPa 0.0 l/m 0.3 km/h (0 Bft) O 0.00 h 0 lux -2.0 C -0.9 C
18.11.2005 03:00 -1.8 C 91 % 1019.9 hPa 0.0 l/m 0.7 km/h (0 Bft) O 0.00 h 0 lux -3.1 C -1.9 C
18.11.2005 04:00 -1.5 C 93 % 1019.8 hPa 0.0 l/m 0.0 km/h (0 Bft) N 0.00 h 0 lux -2.5 C -1.5 C
18.11.2005 05:00 -1.2 C 93 % 1019.8 hPa 0.0 l/m 1.7 km/h (1 Bft) O 0.00 h 0 lux -2.1 C -1.6 C
18.11.2005 06:00 -0.8 C 94 % 1019.7 hPa 0.0 l/m 0.1 km/h (0 Bft) N 0.00 h 0 lux -1.6 C -0.8 C
18.11.2005 07:00 -0.5 C 95 % 1019.7 hPa 0.0 l/m 2.6 km/h (1 Bft) SO 0.03 h 746 lux -1.2 C -1.4 C
18.11.2005 08:00 0.2 C 91 % 1020.5 hPa 0.0 l/m 1.0 km/h (0 Bft) SO 0.00 h 5.40 klux -1.1 C -0.1 C
18.11.2005 09:00 1.1 C 84 % 1021.0 hPa 0.3 l/m 0.2 km/h (0 Bft) S-SO 0.07 h 15.3 klux -1.3 C 1.1 C
18.11.2005 10:00 3.0 C 75 % 1021.3 hPa 0.0 l/m 0.2 km/h (0 Bft) S-SO 0.60 h 32.8 klux -1.1 C 3.0 C
18.11.2005 11:00 4.8 C 62 % 1021.0 hPa 0.0 l/m 8.1 km/h (2 Bft) W 0.97 h 47.6 klux -1.8 C 3.1 C
18.11.2005 12:00 4.9 C 59 % 1021.0 hPa 0.0 l/m 11.6 km/h (2 Bft) W-NW 0.90 h 52.7 klux -2.3 C 2.4 C
18.11.2005 13:00 5.5 C 58 % 1019.9 hPa 0.0 l/m 9.6 km/h (2 Bft) W 0.90 h 47.5 klux -2.1 C 3.5 C
18.11.2005 14:00 5.9 C 54 % 1019.8 hPa 0.0 l/m 5.1 km/h (1 Bft) W-NW 0.17 h 21.4 klux -2.6 C 5.0 C
18.11.2005 15:00 4.3 C 69 % 1020.0 hPa 0.0 l/m 4.5 km/h (1 Bft) W-NW 0.00 h 2.81 klux -1.0 C 3.3 C
18.11.2005 16:00 3.2 C 76 % 1020.6 hPa 0.0 l/m 3.0 km/h (1 Bft) O-SO 0.00 h 989 lux -0.6 C 2.6 C
18.11.2005 17:00 1.3 C 80 % 1022.4 hPa 0.0 l/m 1.0 km/h (0 Bft) O-SO 0.00 h 53 lux -1.9 C 1.0 C
18.11.2005 18:00 0.2 C 86 % 1023.0 hPa 0.0 l/m 1.1 km/h (0 Bft) O-SO 0.00 h 0 lux -1.8 C 0.0 C
18.11.2005 19:00 -0.0 C 88 % 1023.8 hPa 0.0 l/m 2.6 km/h (1 Bft) O-SO 0.00 h 0 lux -1.8 C -0.5 C
18.11.2005 20:00 -0.8 C 88 % 1024.2 hPa 0.0 l/m 2.2 km/h (1 Bft) O-SO 0.00 h 0 lux -2.5 C -1.3 C
18.11.2005 21:00 -1.3 C 90 % 1025.0 hPa 0.0 l/m 0.5 km/h (0 Bft) O-SO 0.00 h 0 lux -2.7 C -1.4 C
18.11.2005 22:00 -1.2 C 91 % 1025.0 hPa 0.0 l/m 0.0 km/h (0 Bft) N 0.00 h 0 lux -2.5 C -1.2 C
18.11.2005 23:00 -0.5 C 93 % 1025.8 hPa 0.0 l/m 0.1 km/h (0 Bft) N 0.00 h 0 lux -1.6 C -0.5 C
19.11.2005 00:00 -1.3 C 92 % 1026.1 hPa 0.0 l/m 0.5 km/h (0 Bft) S 0.00 h 0 lux -2.4 C -1.3 C
19.11.2005 01:00 -2.1 C 92 % 1026.2 hPa 0.0 l/m 3.2 km/h (1 Bft) SO 0.00 h 0 lux -3.2 C -3.0 C
19.11.2005 02:00 -2.4 C 93 % 1026.2 hPa 0.0 l/m 0.7 km/h (0 Bft) SO 0.00 h 0 lux -3.5 C -2.5 C
19.11.2005 03:00 -2.3 C 94 % 1026.2 hPa 0.0 l/m 0.2 km/h (0 Bft) SO 0.00 h 0 lux -3.1 C -2.3 C
19.11.2005 04:00 -2.8 C 94 % 1027.3 hPa 0.0 l/m 0.5 km/h (0 Bft) SO 0.00 h 0 lux -3.7 C -2.8 C
19.11.2005 05:00 -2.2 C 94 % 1027.6 hPa 0.0 l/m 0.3 km/h (0 Bft) W-NW 0.00 h 0 lux -3.0 C -2.2 C
19.11.2005 06:00 -2.6 C 94 % 1028.3 hPa 0.0 l/m 0.0 km/h (0 Bft) N 0.00 h 0 lux -3.4 C -2.6 C
19.11.2005 07:00 -2.6 C 95 % 1028.6 hPa 0.0 l/m 0.0 km/h (0 Bft) N 0.00 h 447 lux -3.2 C -2.6 C
19.11.2005 08:00 -2.7 C 95 % 1029.4 hPa 0.0 l/m 1.1 km/h (0 Bft) W-NW 0.00 h 3.97 klux -3.4 C -3.0 C
19.11.2005 09:00 -2.2 C 94 % 1030.0 hPa 0.0 l/m 0.3 km/h (0 Bft) O 0.00 h 12.5 klux -3.0 C -2.2 C
19.11.2005 10:00 -1.5 C 93 % 1030.3 hPa 0.0 l/m 0.2 km/h (0 Bft) N 0.77 h 33.1 klux -2.6 C -1.5 C
19.11.2005 11:00 0.6 C 83 % 1029.9 hPa 0.0 l/m 1.3 km/h (1 Bft) O 1.00 h 51.2 klux -2.0 C 0.4 C
19.11.2005 12:00 3.1 C 68 % 1028.5 hPa 0.0 l/m 0.9 km/h (0 Bft) W-NW 1.00 h 53.2 klux -2.4 C 3.0 C
19.11.2005 13:00 4.1 C 56 % 1028.5 hPa 0.0 l/m 1.7 km/h (1 Bft) O 0.23 h 22.0 klux -3.9 C 3.8 C
19.11.2005 14:00 4.3 C 48 % 1028.5 hPa 0.0 l/m 6.8 km/h (2 Bft) O-SO 0.90 h 34.1 klux -5.8 C 2.8 C
19.11.2005 15:00 4.3 C 45 % 1028.8 hPa 0.0 l/m 8.3 km/h (2 Bft) O-SO 1.00 h 24.3 klux -6.5 C 2.3 C
19.11.2005 16:00 2.3 C 52 % 1029.7 hPa 0.0 l/m 0.5 km/h (0 Bft) O-SO 0.57 h 4.35 klux -6.7 C 2.3 C
19.11.2005 17:00 0.1 C 62 % 1030.0 hPa 0.0 l/m 2.6 km/h (1 Bft) O-SO 0.00 h 56 lux -6.4 C -0.4 C
19.11.2005 18:00 -1.8 C 70 % 1030.3 hPa 0.0 l/m 0.4 km/h (0 Bft) O-SO 0.00 h 0 lux -6.5 C -1.9 C
19.11.2005 19:00 -2.8 C 78 % 1031.4 hPa 0.0 l/m 0.4 km/h (0 Bft) O-SO 0.00 h 0 lux -6.0 C -2.9 C
19.11.2005 20:00 -3.4 C 81 % 1031.6 hPa 0.0 l/m 0.1 km/h (0 Bft) O-SO 0.00 h 0 lux -6.2 C -3.4 C
19.11.2005 21:00 -3.6 C 83 % 1031.6 hPa 0.0 l/m 0.1 km/h (0 Bft) N 0.00 h 0 lux -6.0 C -3.6 C
19.11.2005 22:00 -4.0 C 84 % 1032.4 hPa 0.0 l/m 0.0 km/h (0 Bft) N 0.00 h 0 lux -6.3 C -4.0 C
19.11.2005 23:00 -4.5 C 85 % 1032.8 hPa 0.0 l/m 0.0 km/h (0 Bft) N 0.00 h 0 lux -6.6 C -4.5 C
20.11.2005 00:00 -4.4 C 86 % 1032.8 hPa 0.0 l/m 0.1 km/h (0 Bft) NO 0.00 h 0 lux -6.4 C -4.4 C
20.11.2005 01:00 -4.4 C 87 % 1032.8 hPa 0.0 l/m 0.2 km/h (0 Bft) NO 0.00 h 0 lux -6.3 C -4.4 C
20.11.2005 02:00 -5.1 C 85 % 1032.9 hPa 0.0 l/m 0.0 km/h (0 Bft) N 0.00 h 0 lux -7.3 C -5.1 C
20.11.2005 03:00 -5.3 C 84 % 1033.5 hPa 0.0 l/m 0.4 km/h (0 Bft) O-NO 0.00 h 0 lux -7.5 C -5.3 C
20.11.2005 04:00 -5.8 C 83 % 1033.9 hPa 0.0 l/m 0.2 km/h (0 Bft) O 0.00 h 0 lux -8.2 C -5.8 C
20.11.2005 05:00 -5.9 C 84 % 1034.1 hPa 0.0 l/m 0.0 km/h (0 Bft) N 0.00 h 0 lux -8.2 C -5.9 C
20.11.2005 06:00 -6.6 C 82 % 1034.2 hPa 0.0 l/m 0.0 km/h (0 Bft) N 0.00 h 0 lux -9.2 C -6.6 C
20.11.2005 07:00 -6.5 C 82 % 1034.2 hPa 0.0 l/m 0.2 km/h (0 Bft) O 0.03 h 763 lux -9.1 C -6.5 C
20.11.2005 08:00 -6.2 C 82 % 1035.0 hPa 0.0 l/m 0.0 km/h (0 Bft) N 0.00 h 5.76 klux -8.7 C -6.2 C
20.11.2005 09:00 -4.0 C 84 % 1034.8 hPa 0.0 l/m 0.0 km/h (0 Bft) N 0.70 h 21.5 klux -6.3 C -4.0 C
20.11.2005 10:00 -2.5 C 83 % 1033.9 hPa 0.3 l/m 0.2 km/h (0 Bft) N 1.00 h 40.3 klux -5.0 C -2.5 C
20.11.2005 11:00 -0.6 C 76 % 1033.2 hPa 0.0 l/m 0.3 km/h (0 Bft) N-NW 1.00 h 44.4 klux -4.3 C -0.6 C
20.11.2005 12:00 1.2 C 69 % 1032.5 hPa 0.0 l/m 0.4 km/h (0 Bft) SW 0.98 h 44.0 klux -3.8 C 1.2 C
20.11.2005 13:00 3.0 C 62 % 1031.7 hPa 0.0 l/m 0.5 km/h (0 Bft) S 0.85 h 36.9 klux -3.7 C 3.0 C
20.11.2005 14:00 4.1 C 52 % 1031.5 hPa 0.0 l/m 1.5 km/h (1 Bft) S-SO 0.65 h 25.7 klux -4.9 C 3.8 C
20.11.2005 15:00 3.7 C 54 % 1031.6 hPa 0.0 l/m 0.4 km/h (0 Bft) S-SO 0.00 h 8.74 klux -4.7 C 3.7 C
20.11.2005 16:00 2.8 C 59 % 1031.7 hPa 0.0 l/m 0.9 km/h (0 Bft) S-SO 0.05 h 1.65 klux -4.5 C 2.6 C
20.11.2005 17:00 2.0 C 62 % 1031.8 hPa 0.0 l/m 1.1 km/h (1 Bft) S-SO 0.00 h 32 lux -4.6 C 1.8 C
20.11.2005 18:00 1.2 C 67 % 1031.9 hPa 0.0 l/m 2.5 km/h (1 Bft) S-SO 0.00 h 0 lux -4.3 C 0.5 C
20.11.2005 19:00 0.9 C 69 % 1032.0 hPa 0.0 l/m 0.3 km/h (0 Bft) S-SO 0.00 h 0 lux -4.2 C 0.8 C
20.11.2005 20:00 0.7 C 72 % 1032.0 hPa 0.0 l/m 0.7 km/h (0 Bft) S-SO 0.00 h 0 lux -3.7 C 0.5 C
20.11.2005 21:00 1.0 C 67 % 1032.0 hPa 0.0 l/m 0.3 km/h (0 Bft) S-SO 0.00 h 0 lux -4.5 C 1.0 C
20.11.2005 22:00 0.7 C 66 % 1032.0 hPa 0.0 l/m 0.0 km/h (0 Bft) N 0.00 h 0 lux -5.0 C 0.7 C
20.11.2005 23:00 -0.1 C 75 % 1032.1 hPa 0.0 l/m 0.0 km/h (0 Bft) N 0.00 h 0 lux -3.9 C -0.1 C
Min-Datum _ 20.11.05 19.11.05 16.11.05 - 14.11.05 - - - 20.11.05 20.11.05
_ Min-Zeit 06:25 14:41 12:20 - 00:00 - - - 06:25 06:25
Minimum _ -6.9 C 43 % 1002.9 hPa - 0.0 km/h (0 Bft) - - - -9.6 C -6.9 C
Max-Datum _ 15.11.05 17.11.05 20.11.05 16.11.05 16.11.05 - 15.11.05 17.11.05 16.11.05 15.11.05
_ Max-Zeit 15:36 08:49 08:07 19:30 14:10 - 15:04 12:33 08:24 15:36
Maximum _ 9.8 C 98 % 1035.3 hPa 0.6 l/m 55.1 km/h
W-NW (7 Bft)
- 0.07 h 76.0 klux 6.2 C 9.8 C
Durchschnitt _ 2.3 C 81 % 1020.1 hPa #1.3 l/m 3.8 km/h (1 Bft) W-NW #21:54 h 7.40 klux -0.7 C 1.7 C
© Kaiko 2005